Shaftsbury Center, Vermont
Current Conditions -  °F | °C
As of 10:46 AM on Thursday 23 Oct 2014 (Local Time) from KDDH Reporting Station
Moderate Rain Moderate Rain  
Wind Chill: 40°   Ceiling: 800
Heat Index: 43°   Visibility: 2mi
Dew Point: 41°   Wind: 5mph
Humidity: 93%   Direction: 310°NW
Pressure: 29.82"   Gusts: NA
Location:  42.9815°N, 73.2071°W
Report Text: KDDH 231446Z AUTO 31004KT 2SM RA BR OVC008 06/05 A2982 RMK AO2 CIG 005V012 P0009 T00610050
Loading
Personal Weather Stations






























Interactive Weather Map
Tropical Storm Tracking
New forecast layout! Learn more

10-Day Weather Forecast

Advertisements
Track Severe Weather on mobile